Time;durP1;ratioP1;P1;durP2;ratioP2;P2;SDS_P1;SDS_P2;PMS_P1;PMS_P2;Temp;Humidity;BMP_temperature;BMP_pressure;BME280_temperature;BME280_humidity;BME280_pressure;Samples;Min_cycle;Max_cycle;Signal;HPM_P1;HPM_P2
2021/08/04 00:01:31;;;;;;;4.60;1.30;;;15.00;99.90;;;;;;5043048;28;20033;-78
2021/08/04 00:03:56;;;;;;;3.55;1.40;;;14.70;99.90;;;;;;5043566;28;20030;-80
2021/08/04 00:06:22;;;;;;;3.40;1.40;;;14.70;99.90;;;;;;5025322;28;20041;-78
2021/08/04 00:08:47;;;;;;;4.60;1.27;;;14.70;99.90;;;;;;5043159;28;20057;-78
2021/08/04 00:11:13;;;;;;;4.43;1.33;;;14.70;99.90;;;;;;5025374;28;20037;-78
2021/08/04 00:13:39;;;;;;;2.60;1.10;;;14.70;99.90;;;;;;5042645;28;20018;-78
2021/08/04 00:16:04;;;;;;;4.85;1.48;;;14.60;99.90;;;;;;5042099;28;20033;-78
2021/08/04 00:18:30;;;;;;;3.45;1.00;;;14.60;99.90;;;;;;5041461;28;20026;-77
2021/08/04 00:20:55;;;;;;;5.32;1.90;;;14.60;99.90;;;;;;5042508;28;20033;-78
2021/08/04 00:23:21;;;;;;;3.80;1.08;;;14.60;99.90;;;;;;5041374;28;20029;-78
2021/08/04 00:25:47;;;;;;;5.05;1.40;;;14.60;99.90;;;;;;5043622;28;20045;-78
2021/08/04 00:28:12;;;;;;;4.63;1.02;;;14.60;99.90;;;;;;5042288;28;20577;-78
2021/08/04 00:30:38;;;;;;;4.60;1.30;;;14.60;99.90;;;;;;5025452;28;20047;-78
2021/08/04 00:33:04;;;;;;;3.08;1.40;;;14.60;99.90;;;;;;5043265;28;20027;-79
2021/08/04 00:35:29;;;;;;;4.82;1.40;;;14.50;99.90;;;;;;5024833;28;20052;-78
2021/08/04 00:37:55;;;;;;;2.33;1.13;;;14.50;99.90;;;;;;5023172;28;20029;-78
2021/08/04 00:40:21;;;;;;;3.30;1.15;;;14.50;99.90;;;;;;5039345;28;20033;-78
2021/08/04 00:42:47;;;;;;;3.25;1.30;;;14.50;99.90;;;;;;5042428;28;20087;-78
2021/08/04 00:45:13;;;;;;;3.15;1.35;;;14.50;99.90;;;;;;5023397;28;20037;-77
2021/08/04 00:47:39;;;;;;;4.93;1.08;;;14.50;99.90;;;;;;5042622;28;20033;-78
2021/08/04 00:50:06;;;;;;;3.30;1.30;;;14.50;99.90;;;;;;5040852;28;20022;-78
2021/08/04 00:52:31;;;;;;;4.55;1.10;;;14.50;99.90;;;;;;5041004;28;20118;-78
2021/08/04 00:54:57;;;;;;;6.00;1.17;;;14.50;99.90;;;;;;5040995;28;20045;-78
2021/08/04 00:57:23;;;;;;;3.03;1.25;;;14.40;99.90;;;;;;5039482;28;20030;-77
2021/08/04 00:59:48;;;;;;;4.03;1.00;;;14.40;99.90;;;;;;5041648;28;20099;-78
2021/08/04 01:02:23;;;;;;;4.57;1.20;;;14.40;99.90;;;;;;5041700;28;20104;-78
2021/08/04 01:04:54;;;;;;;4.07;1.48;;;14.50;99.90;;;;;;5042250;28;20041;-78
2021/08/04 01:07:33;;;;;;;3.00;1.08;;;14.40;99.90;;;;;;5041324;28;20017;-78
2021/08/04 01:10:22;;;;;;;3.30;1.10;;;14.40;99.90;;;;;;5040162;28;20021;-78
2021/08/04 01:13:05;;;;;;;2.05;1.08;;;14.40;99.90;;;;;;5034480;28;20045;-77
2021/08/04 01:15:35;;;;;;;3.53;1.40;;;14.50;99.90;;;;;;5024448;28;20175;-78
2021/08/04 01:18:02;;;;;;;3.42;1.13;;;14.40;99.90;;;;;;5042164;28;20048;-78
2021/08/04 01:20:30;;;;;;;2.80;1.10;;;14.40;99.90;;;;;;5042449;28;20044;-78
2021/08/04 01:23:37;;;;;;;2.95;1.10;;;14.40;99.90;;;;;;5059286;22;20056;-83
2021/08/04 01:27:06;;;;;;;2.33;0.90;;;15.30;99.90;;;;;;5042735;28;20025;-83
2021/08/04 01:30:08;;;;;;;;;;;;;;;;;;;;;
2021/08/04 01:42:39;;;;;;;4.25;1.30;;;14.50;99.90;;;;;;4984206;28;20042;-83
2021/08/04 01:45:24;;;;;;;6.15;1.52;;;14.50;99.90;;;;;;4986654;28;20877;-83
2021/08/04 01:48:50;;;;;;;2.53;1.40;;;15.60;99.90;;;;;;4976006;28;20046;-83
2021/08/04 01:52:03;;;;;;;6.28;1.13;;;14.00;99.90;;;;;;4981779;28;20121;-83
2021/08/04 01:54:43;;;;;;;;;;;;;;;;;;;;;
2021/08/04 02:01:41;;;;;;;3.35;1.30;;;15.30;99.90;;;;;;5020714;28;20075;-84
2021/08/04 02:04:51;;;;;;;;;;;;;;;;;;;;;
2021/08/04 02:07:43;;;;;;;6.05;1.25;;;13.60;99.90;;;;;;5043776;28;20108;-83
2021/08/04 02:10:42;;;;;;;2.85;1.20;;;13.10;99.90;;;;;;5036687;28;20033;-82
2021/08/04 02:13:46;;;;;;;;;;;;;;;;;;;;;
2021/08/04 02:17:05;;;;;;;3.75;1.33;;;14.30;99.90;;;;;;5052196;28;20557;-84
2021/08/04 02:20:07;;;;;;;3.40;1.30;;;15.50;99.90;;;;;;5035244;28;20049;-83
2021/08/04 02:23:21;;;;;;;6.28;1.40;;;14.30;99.90;;;;;;5050375;28;20041;-82
2021/08/04 02:26:15;;;;;;;4.03;1.08;;;14.40;99.90;;;;;;5040614;28;20030;-84
2021/08/04 02:29:02;;;;;;;3.97;1.10;;;14.70;99.90;;;;;;5050112;28;20112;-83
2021/08/04 02:32:02;;;;;;;6.32;1.20;;;13.30;99.90;;;;;;5034937;28;20057;-82
2021/08/04 02:34:48;;;;;;;4.53;1.25;;;14.50;99.90;;;;;;5033895;28;20037;-83
2021/08/04 02:37:33;;;;;;;;;;;;;;;;;;;;;
2021/08/04 02:40:18;;;;;;;2.53;1.00;;;14.90;99.90;;;;;;5035014;28;20100;-83
2021/08/04 02:43:11;;;;;;;3.47;1.08;;;12.80;99.90;;;;;;5050371;28;20107;-83
2021/08/04 02:45:47;;;;;;;3.72;0.95;;;14.10;99.90;;;;;;5048690;28;20030;-84
2021/08/04 02:48:33;;;;;;;2.65;1.20;;;14.40;99.90;;;;;;5050704;28;20022;-83
2021/08/04 02:54:24;;;;;;;2.13;1.00;;;14.40;99.90;;;;;;5036696;28;20044;-82
2021/08/04 02:57:07;;;;;;;5.97;1.23;;;14.50;99.90;;;;;;5034663;28;20018;-82
2021/08/04 02:59:55;;;;;;;3.72;1.10;;;14.40;99.90;;;;;;5033971;28;20083;-82
2021/08/04 03:02:57;;;;;;;3.67;1.35;;;15.30;99.90;;;;;;5035436;28;20368;-84
2021/08/04 03:05:41;;;;;;;3.42;1.10;;;14.70;99.90;;;;;;5034963;28;20094;-83
2021/08/04 03:12:00;;;;;;;5.00;1.20;;;13.90;99.90;;;;;;5034856;28;20034;-84
2021/08/04 03:14:59;;;;;;;4.25;1.30;;;13.70;99.90;;;;;;5035230;28;20025;-83
2021/08/04 03:21:29;;;;;;;3.08;1.20;;;14.20;99.90;;;;;;5036892;28;20025;-81
2021/08/04 03:25:09;;;;;;;4.07;1.48;;;14.70;99.90;;;;;;5031814;28;20480;-83
2021/08/04 03:28:18;;;;;;;2.72;1.20;;;14.30;99.90;;;;;;5036628;28;20033;-82
2021/08/04 03:31:15;;;;;;;4.57;1.70;;;15.40;99.90;;;;;;5036162;28;20025;-83
2021/08/04 03:33:52;;;;;;;9.32;1.30;;;15.20;99.90;;;;;;5041293;28;20048;-83
2021/08/04 03:36:24;;;;;;;3.33;1.40;;;14.50;99.90;;;;;;5053848;28;20037;-84
2021/08/04 03:38:57;;;;;;;;;;;14.70;99.90;;;;;;5046334;28;20517;-82
2021/08/04 03:41:52;;;;;;;5.10;1.30;;;14.40;99.90;;;;;;5032408;28;19913;-83
2021/08/04 03:44:37;;;;;;;6.40;1.30;;;14.80;99.90;;;;;;5032938;28;20116;-83
2021/08/04 03:47:19;;;;;;;2.42;1.23;;;14.50;99.90;;;;;;5039268;28;20064;-83
2021/08/04 03:53:31;;;;;;;3.17;1.42;;;14.70;99.90;;;;;;5033631;28;20029;-83
2021/08/04 03:56:51;;;;;;;;;;;;;;;;;;;;;
2021/08/04 04:00:08;;;;;;;2.67;1.27;;;14.90;99.90;;;;;;5043437;28;20016;-84
2021/08/04 04:02:45;;;;;;;3.95;1.10;;;14.60;99.90;;;;;;5052531;28;20374;-84
2021/08/04 04:05:16;;;;;;;3.17;1.13;;;14.60;99.90;;;;;;5051298;28;20025;-84
2021/08/04 04:08:06;;;;;;;4.72;1.40;;;14.70;99.90;;;;;;5031324;28;20067;-83
2021/08/04 04:10:49;;;;;;;2.25;1.00;;;14.70;99.90;;;;;;5035086;28;20112;-84
2021/08/04 04:13:34;;;;;;;;;;;;;;;;;;;;;
2021/08/04 04:16:22;;;;;;;3.78;1.20;;;15.00;99.90;;;;;;5032122;28;20028;-83
2021/08/04 04:18:53;;;;;;;4.75;1.42;;;14.90;99.90;;;;;;5036724;28;20052;-84
2021/08/04 04:24:14;;;;;;;3.22;1.33;;;15.60;99.90;;;;;;5031422;28;20060;-83
2021/08/04 04:26:40;;;;;;;3.63;1.20;;;15.30;99.90;;;;;;5036609;28;20093;-83
2021/08/04 04:29:06;;;;;;;3.10;1.13;;;14.60;99.90;;;;;;5049234;28;20093;-83
2021/08/04 04:31:31;;;;;;;3.30;1.33;;;14.70;99.90;;;;;;5051475;28;20060;-83
2021/08/04 04:33:57;;;;;;;3.83;1.50;;;14.80;99.90;;;;;;5049701;28;20025;-83
2021/08/04 04:36:22;;;;;;;2.63;1.20;;;14.70;99.90;;;;;;5037029;28;20025;-83
2021/08/04 04:38:48;;;;;;;3.42;1.35;;;14.70;99.90;;;;;;5039572;28;20038;-84
2021/08/04 04:41:13;;;;;;;3.65;1.20;;;14.90;99.90;;;;;;5047086;28;20057;-84
2021/08/04 04:43:41;;;;;;;2.85;1.20;;;14.70;99.90;;;;;;5057978;28;20040;-83
2021/08/04 04:46:07;;;;;;;4.10;1.27;;;14.70;99.90;;;;;;5056927;28;20603;-83
2021/08/04 04:48:33;;;;;;;3.42;1.48;;;14.70;99.90;;;;;;5041103;28;20114;-84
2021/08/04 04:50:59;;;;;;;5.40;1.52;;;14.80;99.90;;;;;;5054862;28;20033;-84
2021/08/04 04:53:24;;;;;;;4.32;1.30;;;14.80;99.90;;;;;;5057276;28;20032;-84
2021/08/04 04:55:50;;;;;;;6.45;1.38;;;14.80;99.90;;;;;;5055346;28;20024;-83
2021/08/04 04:58:15;;;;;;;4.70;1.25;;;14.80;99.90;;;;;;5056418;28;20098;-83
2021/08/04 05:00:41;;;;;;;4.03;1.40;;;14.90;99.90;;;;;;5053786;28;20042;-83
2021/08/04 05:03:06;;;;;;;2.33;1.10;;;14.90;99.90;;;;;;5043087;28;20489;-83
2021/08/04 05:05:32;;;;;;;3.65;1.48;;;15.00;99.90;;;;;;5047220;28;20401;-83
2021/08/04 05:07:58;;;;;;;4.30;1.08;;;14.90;99.90;;;;;;5056559;28;20029;-83
2021/08/04 05:10:23;;;;;;;3.88;1.30;;;14.90;99.90;;;;;;5038556;28;20017;-83
2021/08/04 05:12:49;;;;;;;6.82;1.23;;;14.90;99.90;;;;;;5043715;28;20064;-83
2021/08/04 05:15:14;;;;;;;3.90;1.17;;;14.90;99.90;;;;;;5056163;28;20179;-83
2021/08/04 05:17:40;;;;;;;4.75;1.38;;;15.00;99.90;;;;;;5049555;28;20021;-83
2021/08/04 05:20:06;;;;;;;5.57;1.40;;;14.90;99.90;;;;;;5035475;28;20029;-84
2021/08/04 05:22:32;;;;;;;3.25;1.20;;;15.00;99.90;;;;;;5050163;28;20397;-83
2021/08/04 05:24:57;;;;;;;3.40;2.10;;;15.10;99.90;;;;;;5042035;28;20026;-83
2021/08/04 05:27:23;;;;;;;2.92;1.23;;;15.20;99.90;;;;;;5035936;28;20084;-82
2021/08/04 05:29:49;;;;;;;3.97;1.50;;;15.10;99.90;;;;;;5036354;28;20033;-82
2021/08/04 05:32:18;;;;;;;2.58;1.27;;;15.20;99.90;;;;;;5050571;28;20380;-82
2021/08/04 05:34:44;;;;;;;4.28;1.40;;;15.10;99.90;;;;;;5054381;28;20025;-82
2021/08/04 05:37:09;;;;;;;8.38;1.38;;;15.00;99.90;;;;;;5053940;28;20471;-82
2021/08/04 05:39:35;;;;;;;4.03;1.55;;;14.90;99.90;;;;;;5043871;28;20124;-82
2021/08/04 05:42:00;;;;;;;4.90;1.42;;;14.90;99.90;;;;;;5048430;28;20030;-82
2021/08/04 05:44:26;;;;;;;2.60;0.98;;;15.00;99.90;;;;;;5052917;28;20497;-83
2021/08/04 05:46:52;;;;;;;5.85;2.13;;;15.00;99.90;;;;;;5055603;28;20032;-82
2021/08/04 05:49:17;;;;;;;4.53;1.42;;;15.20;99.90;;;;;;5044161;28;20052;-83
2021/08/04 05:51:43;;;;;;;3.28;1.27;;;15.20;99.90;;;;;;5049155;28;20131;-82
2021/08/04 05:54:08;;;;;;;5.72;1.63;;;15.20;99.90;;;;;;5048723;28;20025;-83
2021/08/04 05:56:34;;;;;;;3.58;1.73;;;15.30;99.90;;;;;;5051405;28;20540;-83
2021/08/04 05:58:59;;;;;;;4.03;1.40;;;15.30;99.90;;;;;;5046568;28;20057;-81
2021/08/04 06:01:25;;;;;;;7.32;1.40;;;15.50;99.90;;;;;;5047271;28;20028;-82
2021/08/04 06:03:51;;;;;;;5.28;1.52;;;15.40;99.90;;;;;;5039529;28;20342;-82
2021/08/04 06:06:16;;;;;;;4.60;1.02;;;15.40;99.90;;;;;;5047624;28;20025;-82
2021/08/04 06:08:42;;;;;;;4.53;1.35;;;15.40;99.90;;;;;;5035123;28;20478;-80
2021/08/04 06:11:07;;;;;;;3.63;1.40;;;15.40;99.90;;;;;;5042431;28;20056;-81
2021/08/04 06:13:33;;;;;;;6.93;1.50;;;15.40;99.90;;;;;;5038154;28;20038;-81
2021/08/04 06:15:59;;;;;;;3.05;1.30;;;15.30;99.90;;;;;;5044003;28;20059;-81
2021/08/04 06:18:24;;;;;;;3.40;1.40;;;15.20;99.90;;;;;;5039984;28;20053;-81
2021/08/04 06:20:50;;;;;;;2.95;1.33;;;15.00;99.90;;;;;;5038770;28;20190;-82
2021/08/04 06:23:16;;;;;;;4.93;1.42;;;15.20;99.90;;;;;;5041870;28;20045;-82
2021/08/04 06:25:41;;;;;;;4.50;1.30;;;15.20;99.90;;;;;;5048622;28;20413;-82
2021/08/04 06:28:07;;;;;;;5.97;1.50;;;15.30;99.90;;;;;;5049424;28;20114;-82
2021/08/04 06:30:33;;;;;;;5.38;1.27;;;15.40;99.90;;;;;;5048319;28;20143;-82
2021/08/04 06:32:58;;;;;;;2.70;1.30;;;15.50;99.90;;;;;;5049145;28;20067;-83
2021/08/04 06:35:24;;;;;;;3.20;1.00;;;15.60;99.90;;;;;;5045440;28;20051;-82
2021/08/04 06:37:50;;;;;;;3.75;1.27;;;15.80;99.90;;;;;;5046788;28;20044;-83
2021/08/04 06:40:15;;;;;;;5.60;1.85;;;15.90;99.90;;;;;;5044227;28;20482;-83
2021/08/04 06:42:42;;;;;;;2.95;1.20;;;15.90;99.90;;;;;;5039162;28;20086;-83
2021/08/04 06:45:08;;;;;;;2.83;1.30;;;15.90;99.90;;;;;;5050796;28;20025;-83
2021/08/04 06:47:35;;;;;;;3.13;1.48;;;15.70;99.90;;;;;;5040407;28;20052;-83
2021/08/04 06:50:02;;;;;;;3.67;2.22;;;15.60;99.90;;;;;;5045582;28;20431;-84
2021/08/04 06:52:28;;;;;;;3.30;1.15;;;15.60;99.90;;;;;;5051648;28;20079;-82
2021/08/04 06:54:54;;;;;;;3.03;1.20;;;15.70;99.90;;;;;;5042840;28;20041;-83
2021/08/04 06:57:20;;;;;;;3.95;1.10;;;15.60;99.90;;;;;;5044994;28;20025;-80
2021/08/04 06:59:47;;;;;;;2.63;1.13;;;15.80;99.90;;;;;;5053048;28;20029;-83
2021/08/04 07:02:13;;;;;;;4.65;1.40;;;16.00;99.90;;;;;;5051585;28;20044;-83
2021/08/04 07:04:39;;;;;;;3.97;1.30;;;16.20;99.90;;;;;;5050165;28;20021;-83
2021/08/04 07:07:08;;;;;;;2.90;1.10;;;16.40;99.90;;;;;;5053505;28;20108;-80
2021/08/04 07:09:35;;;;;;;2.22;1.02;;;16.50;99.90;;;;;;5056920;28;20094;-82
2021/08/04 07:12:01;;;;;;;3.30;1.10;;;16.60;99.90;;;;;;5049993;28;20063;-83
2021/08/04 07:14:27;;;;;;;2.33;1.10;;;16.60;99.90;;;;;;5050287;28;20029;-82
2021/08/04 07:16:54;;;;;;;5.40;1.25;;;16.60;99.90;;;;;;5058186;28;20089;-80
2021/08/04 07:19:20;;;;;;;3.25;1.30;;;16.70;99.90;;;;;;5058173;28;20021;-82
2021/08/04 07:21:45;;;;;;;3.28;1.10;;;16.70;99.90;;;;;;5044887;28;20124;-84
2021/08/04 07:24:11;;;;;;;3.83;1.27;;;16.80;99.90;;;;;;5048759;28;20033;-82
2021/08/04 07:26:40;;;;;;;2.60;1.20;;;17.10;99.90;;;;;;5049510;28;20037;-83
2021/08/04 07:29:06;;;;;;;2.33;1.00;;;17.10;99.90;;;;;;5044335;28;20030;-82
2021/08/04 07:31:33;;;;;;;3.47;1.17;;;17.20;99.90;;;;;;5047289;28;20060;-81
2021/08/04 07:33:58;;;;;;;2.25;0.95;;;17.80;99.90;;;;;;5050426;28;20104;-82
2021/08/04 07:36:24;;;;;;;2.10;0.80;;;18.00;99.90;;;;;;5051759;28;20549;-82
2021/08/04 07:38:50;;;;;;;2.83;1.10;;;18.20;99.90;;;;;;5056531;28;20029;-83
2021/08/04 07:41:16;;;;;;;2.30;0.93;;;18.50;99.90;;;;;;5055348;28;20093;-83
2021/08/04 07:43:42;;;;;;;3.88;1.23;;;18.70;99.90;;;;;;5052811;28;20032;-80
2021/08/04 07:46:08;;;;;;;2.53;1.13;;;18.60;99.90;;;;;;5047681;28;20422;-81
2021/08/04 07:48:35;;;;;;;2.30;1.02;;;18.80;99.90;;;;;;5040004;28;20025;-82
2021/08/04 07:51:02;;;;;;;2.72;0.90;;;18.60;99.90;;;;;;5050461;28;20029;-83
2021/08/04 07:53:29;;;;;;;2.88;0.90;;;18.70;99.90;;;;;;5046165;28;20033;-83
2021/08/04 07:55:55;;;;;;;2.58;1.20;;;18.90;99.90;;;;;;5053728;28;20481;-83
2021/08/04 07:58:21;;;;;;;2.15;0.90;;;19.00;99.90;;;;;;5044599;28;20055;-82
2021/08/04 08:00:47;;;;;;;2.92;1.20;;;19.00;99.90;;;;;;5036361;28;20032;-81
2021/08/04 08:03:13;;;;;;;3.47;1.05;;;19.10;99.90;;;;;;5038629;28;20033;-83
2021/08/04 08:05:39;;;;;;;3.33;1.00;;;19.10;99.90;;;;;;5042297;28;20029;-82
2021/08/04 08:08:05;;;;;;;1.80;0.90;;;19.10;99.90;;;;;;5036339;28;20036;-81
2021/08/04 08:10:36;;;;;;;2.72;1.10;;;19.20;99.90;;;;;;5050866;28;20045;-83
2021/08/04 08:13:05;;;;;;;1.98;1.10;;;19.40;99.90;;;;;;5050991;28;20476;-83
2021/08/04 08:15:33;;;;;;;2.17;1.10;;;19.60;99.90;;;;;;5053205;28;20040;-83
2021/08/04 08:18:06;;;;;;;2.78;1.00;;;19.60;99.90;;;;;;5043313;28;20025;-83
2021/08/04 08:20:32;;;;;;;3.45;1.00;;;19.40;99.90;;;;;;5044801;28;20026;-84
2021/08/04 08:22:58;;;;;;;3.45;1.10;;;19.40;99.90;;;;;;5039430;28;20107;-83
2021/08/04 08:25:23;;;;;;;2.95;0.90;;;19.30;99.90;;;;;;5049110;28;20033;-82
2021/08/04 08:27:49;;;;;;;2.22;1.00;;;19.30;99.90;;;;;;5047520;28;20079;-82
2021/08/04 08:30:15;;;;;;;2.80;1.02;;;19.70;99.90;;;;;;5041858;28;20028;-83
2021/08/04 08:32:41;;;;;;;2.45;1.10;;;19.10;99.90;;;;;;5043875;28;20017;-83
2021/08/04 08:35:08;;;;;;;2.45;0.90;;;19.50;99.90;;;;;;5046780;28;20386;-80
2021/08/04 08:37:34;;;;;;;2.33;0.93;;;19.10;99.90;;;;;;5033902;28;20034;-80
2021/08/04 08:39:59;;;;;;;2.17;1.02;;;19.10;99.90;;;;;;5046207;28;20021;-82
2021/08/04 08:42:25;;;;;;;2.78;1.00;;;19.10;99.90;;;;;;5040503;28;20036;-82
2021/08/04 08:44:51;;;;;;;3.28;1.20;;;19.10;99.90;;;;;;5046968;28;20108;-82
2021/08/04 08:47:17;;;;;;;2.22;1.00;;;19.00;99.90;;;;;;5045941;28;20021;-82
2021/08/04 08:49:44;;;;;;;2.45;1.20;;;19.10;99.90;;;;;;5047376;28;20021;-82
2021/08/04 08:52:11;;;;;;;2.15;0.80;;;19.30;99.90;;;;;;5046494;28;20111;-82
2021/08/04 08:54:37;;;;;;;2.17;1.00;;;19.40;99.90;;;;;;5046421;28;20018;-82
2021/08/04 08:57:03;;;;;;;2.78;1.25;;;19.20;99.90;;;;;;5049590;28;20031;-81
2021/08/04 08:59:29;;;;;;;5.95;1.23;;;19.00;99.90;;;;;;5049049;28;20107;-81
2021/08/04 09:01:56;;;;;;;2.90;1.00;;;19.00;99.90;;;;;;5040663;28;20410;-83
2021/08/04 09:04:21;;;;;;;2.13;0.90;;;18.90;99.90;;;;;;5043179;28;20024;-82
2021/08/04 09:07:02;;;;;;;3.22;1.13;;;18.90;99.90;;;;;;5042554;28;20029;-83
2021/08/04 09:09:30;;;;;;;2.78;1.10;;;18.70;99.90;;;;;;5054461;28;20171;-84
2021/08/04 09:11:56;;;;;;;2.75;1.05;;;18.60;99.90;;;;;;5046440;28;20496;-83
2021/08/04 09:14:27;;;;;;;2.63;1.00;;;18.60;99.90;;;;;;5035571;28;20030;-84
2021/08/04 09:17:06;;;;;;;3.72;1.10;;;18.70;99.90;;;;;;5036052;28;20024;-83
2021/08/04 09:19:37;;;;;;;9.70;1.20;;;18.80;99.90;;;;;;5040896;28;20021;-83
2021/08/04 09:22:08;;;;;;;2.53;0.88;;;18.80;99.90;;;;;;5042634;28;20029;-83
2021/08/04 09:25:01;;;;;;;3.47;1.25;;;18.90;99.90;;;;;;5046416;28;20074;-84
2021/08/04 09:27:48;;;;;;;2.72;1.15;;;19.00;99.90;;;;;;5052226;28;20704;-83
2021/08/04 09:30:26;;;;;;;2.55;1.10;;;19.00;99.90;;;;;;5053579;28;20025;-83
2021/08/04 09:33:11;;;;;;;6.70;1.25;;;19.10;99.90;;;;;;5043414;28;20087;-81
2021/08/04 09:35:42;;;;;;;3.65;0.90;;;19.10;99.90;;;;;;5041461;28;20022;-81
2021/08/04 09:38:08;;;;;;;3.25;1.00;;;19.10;99.90;;;;;;5049401;28;20401;-83
2021/08/04 09:40:33;;;;;;;2.40;1.00;;;19.10;99.90;;;;;;5041570;28;20029;-82
2021/08/04 09:43:00;;;;;;;4.88;1.30;;;19.10;99.90;;;;;;5040409;28;20029;-81
2021/08/04 09:45:48;;;;;;;2.08;1.00;;;19.00;99.90;;;;;;5043078;28;20447;-84
2021/08/04 09:48:18;;;;;;;6.32;1.52;;;19.00;99.90;;;;;;5043002;28;20566;-82
2021/08/04 09:50:59;;;;;;;2.28;1.27;;;19.10;99.90;;;;;;5038528;28;20047;-83
2021/08/04 09:53:36;;;;;;;2.22;1.10;;;19.00;99.90;;;;;;5051226;28;20022;-84
2021/08/04 09:56:14;;;;;;;2.22;0.90;;;19.00;99.90;;;;;;5047078;28;20428;-82
2021/08/04 09:58:43;;;;;;;4.50;1.20;;;19.00;99.90;;;;;;5054819;23;20048;-85
2021/08/04 10:01:11;;;;;;;4.32;1.17;;;19.20;99.90;;;;;;5036995;28;20109;-84
2021/08/04 10:03:37;;;;;;;2.88;1.20;;;19.20;99.90;;;;;;5049577;28;20422;-85
2021/08/04 10:06:03;;;;;;;3.80;0.82;;;19.30;99.90;;;;;;5044241;28;20064;-86
2021/08/04 10:08:29;;;;;;;2.67;1.10;;;19.20;99.90;;;;;;5048762;28;20069;-84
2021/08/04 10:10:56;;;;;;;2.85;1.08;;;19.20;99.90;;;;;;5054664;28;20024;-84
2021/08/04 10:13:31;;;;;;;2.50;1.00;;;19.10;99.90;;;;;;5063445;28;20096;-84
2021/08/04 10:15:59;;;;;;;3.95;0.90;;;19.10;99.90;;;;;;5064989;28;20609;-84
2021/08/04 10:18:31;;;;;;;2.55;1.15;;;19.20;99.90;;;;;;5046924;28;20017;-84
2021/08/04 10:20:58;;;;;;;2.22;0.95;;;19.10;99.90;;;;;;5053562;28;20059;-84
2021/08/04 10:23:26;;;;;;;2.75;1.17;;;19.30;99.90;;;;;;5069835;28;20029;-85
2021/08/04 10:25:55;;;;;;;2.08;1.00;;;19.50;99.90;;;;;;5040077;28;20033;-84
2021/08/04 10:28:21;;;;;;;2.58;1.10;;;20.20;99.90;;;;;;5028596;28;20034;-85
2021/08/04 10:30:48;;;;;;;3.20;1.40;;;20.30;99.90;;;;;;5042283;28;20040;-84
2021/08/04 10:33:14;;;;;;;2.40;0.93;;;20.60;99.90;;;;;;5050924;28;20504;-85
2021/08/04 10:35:53;;;;;;;2.47;0.98;;;21.10;99.90;;;;;;5048875;28;20028;-85
2021/08/04 10:38:23;;;;;;;1.90;0.90;;;20.90;99.90;;;;;;5053206;28;20048;-85
2021/08/04 10:41:17;;;;;;;2.20;1.00;;;21.00;99.90;;;;;;5052654;28;20024;-85
2021/08/04 10:43:47;;;;;;;2.88;0.88;;;20.90;99.90;;;;;;5048556;28;20025;-85
2021/08/04 10:46:31;;;;;;;1.90;0.93;;;20.80;99.90;;;;;;5053313;28;20067;-85
2021/08/04 10:48:57;;;;;;;3.20;1.10;;;20.90;99.90;;;;;;5054501;28;20056;-85
2021/08/04 10:51:23;;;;;;;3.58;1.15;;;20.90;99.90;;;;;;5049228;28;20508;-85
2021/08/04 10:54:01;;;;;;;2.90;0.88;;;21.00;99.90;;;;;;5051109;28;20025;-85
2021/08/04 10:56:33;;;;;;;2.60;1.08;;;21.10;99.90;;;;;;5059737;28;20508;-85
2021/08/04 10:59:11;;;;;;;4.32;0.90;;;21.40;99.90;;;;;;5067242;28;20416;-85
2021/08/04 11:01:38;;;;;;;2.90;1.00;;;20.90;99.90;;;;;;5051015;28;20413;-85
2021/08/04 11:04:05;;;;;;;2.13;0.75;;;20.80;99.90;;;;;;5048675;28;20036;-85
2021/08/04 11:06:31;;;;;;;3.10;1.25;;;20.70;99.90;;;;;;5055430;28;20029;-85
2021/08/04 11:09:12;;;;;;;1.83;0.80;;;21.00;99.90;;;;;;5049506;28;20094;-85
2021/08/04 11:12:11;;;;;;;3.83;0.90;;;21.10;99.90;;;;;;5041817;28;20033;-84
2021/08/04 11:14:50;;;;;;;4.00;0.80;;;21.20;99.90;;;;;;5035249;28;20033;-85
2021/08/04 11:17:17;;;;;;;1.75;0.82;;;21.30;99.90;;;;;;5049619;28;20334;-85
2021/08/04 11:22:38;;;;;;;1.73;0.80;;;21.30;99.90;;;;;;5049315;28;20060;-85
2021/08/04 11:25:24;;;;;;;2.42;0.80;;;21.60;99.90;;;;;;5049543;28;20024;-84
2021/08/04 11:27:52;;;;;;;2.28;0.93;;;21.70;99.90;;;;;;5048098;28;20249;-84
2021/08/04 11:30:40;;;;;;;2.05;0.80;;;21.60;99.90;;;;;;5047965;28;20033;-84
2021/08/04 11:33:32;;;;;;;3.58;0.55;;;21.60;99.90;;;;;;5049321;28;20043;-84
2021/08/04 11:35:59;;;;;;;1.85;0.75;;;21.60;99.90;;;;;;5056005;28;20032;-84
2021/08/04 11:38:45;;;;;;;2.15;0.80;;;21.80;99.90;;;;;;5063377;28;20024;-84
2021/08/04 11:41:26;;;;;;;2.72;1.00;;;22.00;99.90;;;;;;5037926;28;20120;-83
2021/08/04 11:43:59;;;;;;;2.80;1.02;;;21.80;99.90;;;;;;5055259;28;20277;-84
2021/08/04 11:46:33;;;;;;;1.95;0.98;;;21.50;99.90;;;;;;5054499;28;20032;-84
2021/08/04 11:49:00;;;;;;;3.78;0.95;;;21.60;99.90;;;;;;5064250;28;20031;-85
2021/08/04 11:51:34;;;;;;;3.22;1.30;;;21.60;99.90;;;;;;5075642;28;20020;-84
2021/08/04 11:54:00;;;;;;;2.90;0.95;;;21.60;99.90;;;;;;5075580;28;20115;-85
2021/08/04 11:56:26;;;;;;;4.90;1.02;;;21.60;99.90;;;;;;5066133;28;20388;-84
2021/08/04 11:58:52;;;;;;;2.83;1.08;;;21.30;99.90;;;;;;5062318;28;20119;-84
2021/08/04 12:01:19;;;;;;;2.15;0.90;;;21.40;99.90;;;;;;5068169;28;20078;-84
2021/08/04 12:03:45;;;;;;;4.57;1.50;;;21.50;99.90;;;;;;5074898;28;20024;-85
2021/08/04 12:06:18;;;;;;;2.85;1.10;;;21.60;99.90;;;;;;5065806;28;20026;-84
2021/08/04 12:08:44;;;;;;;1.98;1.00;;;21.70;99.90;;;;;;5049545;28;20657;-84
2021/08/04 12:11:10;;;;;;;2.65;1.08;;;22.00;99.90;;;;;;5055456;28;20158;-84
2021/08/04 12:13:36;;;;;;;2.17;0.90;;;22.20;99.90;;;;;;5065738;28;20147;-85
2021/08/04 12:16:02;;;;;;;2.47;0.90;;;22.20;99.90;;;;;;5060646;28;20115;-84
2021/08/04 12:18:28;;;;;;;3.25;1.05;;;22.30;99.90;;;;;;5072455;28;20021;-85
2021/08/04 12:20:53;;;;;;;2.47;0.90;;;22.00;99.90;;;;;;5078449;28;20028;-84
2021/08/04 12:23:23;;;;;;;2.60;0.90;;;22.00;99.90;;;;;;5056035;28;20504;-84
2021/08/04 12:25:58;;;;;;;2.40;1.00;;;22.00;99.90;;;;;;5064205;28;20104;-85
2021/08/04 12:28:31;;;;;;;4.97;1.02;;;22.00;99.90;;;;;;5037670;28;20068;-83
2021/08/04 12:30:57;;;;;;;2.45;0.90;;;21.90;99.90;;;;;;5047555;28;20179;-84
2021/08/04 12:33:34;;;;;;;2.75;1.08;;;22.00;99.90;;;;;;5050825;28;20032;-84
2021/08/04 12:36:10;;;;;;;3.00;0.90;;;22.00;99.90;;;;;;5056147;28;20043;-84
2021/08/04 12:38:39;;;;;;;3.10;1.17;;;21.90;99.90;;;;;;5049589;28;20044;-84
2021/08/04 12:41:07;;;;;;;2.35;1.05;;;21.70;99.90;;;;;;5049624;28;20025;-83
2021/08/04 12:43:36;;;;;;;4.10;0.90;;;21.70;99.90;;;;;;5056076;28;20035;-84
2021/08/04 12:46:04;;;;;;;3.20;1.05;;;21.60;99.90;;;;;;5054474;28;20044;-83
2021/08/04 12:48:46;;;;;;;3.25;1.08;;;21.70;99.90;;;;;;5050606;28;20056;-84
2021/08/04 12:51:16;;;;;;;2.20;0.90;;;21.90;99.90;;;;;;5052502;28;20452;-84
2021/08/04 12:53:43;;;;;;;2.42;1.00;;;22.00;99.90;;;;;;5052588;28;20115;-84
2021/08/04 12:56:10;;;;;;;1.67;0.88;;;21.90;99.90;;;;;;5042053;28;20035;-84
2021/08/04 12:59:15;;;;;;;2.38;0.80;;;22.00;99.90;;;;;;5053622;28;20059;-84
2021/08/04 13:01:46;;;;;;;2.00;0.90;;;22.10;99.90;;;;;;5062165;28;20115;-82
2021/08/04 13:04:31;;;;;;;2.03;0.90;;;22.20;99.90;;;;;;5049663;28;20536;-84
2021/08/04 13:07:00;;;;;;;2.83;0.98;;;21.80;99.90;;;;;;5054451;28;20029;-83
2021/08/04 13:09:29;;;;;;;2.00;0.90;;;21.80;99.90;;;;;;5052080;28;20105;-83
2021/08/04 13:12:19;;;;;;;2.78;1.02;;;21.70;99.90;;;;;;5050496;28;20555;-83
2021/08/04 13:15:20;;;;;;;2.03;0.80;;;21.70;99.90;;;;;;5046012;28;20033;-83
2021/08/04 13:17:54;;;;;;;2.83;0.80;;;21.70;99.90;;;;;;5035521;28;20268;-83
2021/08/04 13:20:37;;;;;;;2.00;0.80;;;21.70;99.90;;;;;;5044329;28;20055;-84
2021/08/04 13:23:11;;;;;;;4.25;0.95;;;21.60;99.90;;;;;;5047657;28;20389;-83
2021/08/04 13:25:46;;;;;;;2.10;0.90;;;21.40;99.90;;;;;;5049918;28;20473;-84
2021/08/04 13:28:22;;;;;;;2.63;0.88;;;21.30;99.90;;;;;;5050203;28;20513;-84
2021/08/04 13:30:50;;;;;;;1.80;0.85;;;21.30;99.90;;;;;;5048864;28;20037;-84
2021/08/04 13:33:21;;;;;;;2.92;0.90;;;21.10;99.90;;;;;;5051122;28;20107;-84
2021/08/04 13:35:56;;;;;;;3.88;0.90;;;21.10;99.90;;;;;;5050454;28;20028;-85
2021/08/04 13:38:22;;;;;;;2.60;0.80;;;21.10;99.90;;;;;;5045911;28;20447;-85
2021/08/04 13:40:49;;;;;;;2.05;0.85;;;20.90;99.90;;;;;;5051043;28;20028;-84
2021/08/04 13:43:15;;;;;;;2.03;0.70;;;20.90;99.90;;;;;;5030972;28;20517;-84
2021/08/04 13:45:41;;;;;;;4.03;0.85;;;20.80;99.90;;;;;;5045971;28;20424;-84
2021/08/04 13:48:07;;;;;;;2.67;0.90;;;20.70;99.90;;;;;;5051411;28;20029;-84
2021/08/04 13:50:34;;;;;;;1.77;0.70;;;20.70;99.90;;;;;;5050102;28;20033;-84
2021/08/04 13:53:01;;;;;;;3.47;0.82;;;20.70;99.90;;;;;;5050856;28;20112;-84
2021/08/04 13:55:29;;;;;;;2.55;0.80;;;20.70;99.90;;;;;;5047416;28;20036;-86
2021/08/04 13:57:56;;;;;;;1.55;0.68;;;20.60;99.90;;;;;;5036229;28;20029;-86
2021/08/04 14:00:30;;;;;;;1.65;0.75;;;20.50;99.90;;;;;;5053694;28;20020;-87